Impacts METAR Board
IDs:

KEWR - Newark Intl, NJ, US

Updated at: 0100 UTC 24 Jun 2018
Potential Impact None Slight Moderate High
Time 23/13Z 23/14Z 23/15Z 23/16Z 23/17Z 23/18Z 23/19Z 23/20Z 23/21Z 23/22Z 23/23Z 24/00Z 24/01Z
Temp66 65 65 65 64 64 65 68 68 68 67 68 67
Dewpt56 57 59 59 59 59 60 61 61 61 61 61 62
Altim29.88 29.87 29.87 29.87 29.86 29.85 29.84 29.82 29.82 29.82 29.81 29.83 29.83
VIS10 10 10 10 10 10 10 10 10 10 10 10 10
CIG18 17 16 14 11 10 10 12 14 14 15 17 16
CoverOVCOVCOVCOVCOVCOVCOVCOVCOVCOVCOVCOVCOVC
FltCatMVFRMVFRMVFRMVFRMVFRMVFRMVFRMVFRMVFRMVFRMVFRMVFRMVFR
WX--------------------------
WDir40503030303602050300905060
WSpd7 8 11 9 11 8 9 8 5 3 4 3 4
WGst-- -- -- -- -- -- -- -- -- -- -- -- --
Raw hourly METARs
KEWR 231251Z 04007KT 10SM OVC018 19/13 A2988 RMK AO2 SLP117 T01890133 $
KEWR 231351Z 05008KT 10SM OVC017 18/14 A2987 RMK AO2 SLP113 T01830139 $
KEWR 231451Z 03011KT 10SM OVC016 18/15 A2987 RMK AO2 SLP114 T01830150 57002 $
KEWR 231604Z 03009KT 10SM OVC014 18/15 A2987 RMK AO2 T01830150 $
KEWR 231651Z 03011KT 10SM OVC011 18/15 A2986 RMK AO2 SLP111 T01780150 $
KEWR 231751Z 36008KT 10SM OVC010 18/15 A2985 RMK AO2 SLP107 T01780150 10194 20178 58006 $
KEWR 231851Z 02009KT 10SM OVC010 18/16 A2984 RMK AO2 SLP103 T01830156 $
KEWR 231951Z 05008KT 10SM OVC012 20/16 A2982 RMK AO2 SLP097 T02000161 $
KEWR 232051Z 03005KT 10SM OVC014 20/16 A2982 RMK AO2 SLP097 T02000161 56010 $
KEWR 232151Z VRB03KT 10SM OVC014 20/16 A2982 RMK AO2 SLP096 T02000161 $
KEWR 232251Z 09004KT 10SM OVC015 19/16 A2981 RMK AO2 SLP093 T01940161 $
KEWR 232351Z 05003KT 10SM OVC017 20/16 A2983 RMK AO2 SLP099 T02000161 10206 20178 53002 $
KEWR 240051Z 06004KT 10SM OVC016 19/17 A2983 RMK AO2 SLP101 T01940167 $



Page loaded:  01:17 UTC  |   06:17 PM Pacific  |   07:17 PM Mountain  |   08:17 PM Central  |   09:17 PM Eastern

 

ADVISORIES

FORECASTS

FORECASTS

OBSERVATIONS

USER TOOLS

ABOUT US